Waizenkirchen, Austria
Current Conditions -  °F | °C
As of 9:20 AM on Thursday 18 Dec 2014 (Local Time) from LOWL Reporting Station
Broken Clouds Broken Clouds  
Wind Chill: 40°   Ceiling: 900
Heat Index: 45°   Visibility: 5mi
Dew Point: 43°   Wind: 9mph
Humidity: 93%   Direction: 270°W
Pressure: 30.03"   Gusts: NA
Location:  48.33°N, 13.86°E
Report Text: LOWL 180720Z 27008KT 8000 FEW005 BKN009 07/06 Q1017 TEMPO SCT008 BKN016
Loading
Personal Weather Stations






























Interactive Weather Map New forecast layout! Learn more

10-Day Weather Forecast

Advertisements
Track Severe Weather on mobile